Current Weather

South County Airport of Santa

South County Airport of Santa, California (KE16)

Report from: Wednesday, April 24, 2024 11:15 PM CDT
Current time: Wednesday, April 24, 2024 11:43 PM CDT

Nearby weather – Weather history – Daily summaries
Weather forecast

Temperature13.0°C (55.4°F)
Dew point9.0°C (48.2°F)
Winds 4 kts (2.1 m/s, 4.6 mph) East-Southeast (110°)
Visibility10 mi. (16.1 km)
Clouds Few clouds 3,400 ft. (1,036 m)
Ceiling: Broken clouds 4,100 ft. (1,250 m)
Overcast 4,800 ft. (1,463 m)
Altimeter30.09 in.Hg (1019 mB)
Precip. events K 10:16 PM
Relative humidity77 %
Density altitude-267 ft. (-81 m)
Remarks Fully automated report
Automated weather observing station with precipitation discriminator
Present weather sensor not operating
Precipitation sensor not operating
Flight conditions Visual Meteorological Conditions
Raw dataKE16 250415Z AUTO 11004KT 10SM FEW034 BKN041 OVC048 13/09 A3009 RMK AO2 PWINO PNO
An error has occurred. This application may no longer respond until reloaded. Reload 🗙